Aérodrome :
LOGIN :

S'inscrire | Disclaimer

   EN    FR    IT 

 










Légende :    VFR   VFR Marginal   IFR   IFR Intensif   IFR Très Intensif
Visi : 
Plafond : 
>= 8 km
>= 3000ft
5 à 8 km
1000 à 3000 ft
1500m à 5 km
500 à 1000 ft
800 à 1500m
200 à 500 ft
< 800m
< 200 ft
Symboles :   Orages  Brouillard  Fortes neiges  Fortes précipitations  Vent > 20 kt
SIGMETs :   Divers  Orages  Givrage  Turbulence  Onde Orograph.  Cendres Volcan.






- Altitude de l'aérodrome : 885 ft
- Code IATA : BAS


LFSB - Bale-Mulhouse

DERNIER METAR :
  • 250430Z 31002KT 6000 FEW004 M03/M03 Q1020 TEMPO 4000 BR

METARs EXPIRÉS :
  • 250400Z 32004KT 6000 FEW004 M03/M04 Q1020 TEMPO 4000 BR
  • 250330Z 32004KT 6000 FEW004 M02/M03 Q1020 TEMPO 4000 BR
  • 250300Z AUTO 13004KT 6000 NSC M00/M01 Q1020 TEMPO 2000 BR
  • 250230Z AUTO VRB03KT 6000 NSC 00/M01 Q1020 TEMPO 2000 BR
  • 250200Z AUTO 15003KT 6000 NSC 01/00 Q1020 TEMPO 2000 BR

TAF TAF LFSB
Valide du 25 à 00h jusqu'au 26 à 00h UTC


242300Z 2500/2524 15005KT 7000 NSC
TEMPO 2502/2508 4000 MIFG
PROB40
TEMPO 2502/2508 2000 BR
Météo : +33 3 89 90 31 11



MET'MAP, la Météo Aéronautique d'un coup d'oeil ! - Copyright ORBIFLY Décembre 2007 - Disclaimer

ORBIFLY MET'MAP TEAM :

Programmation & Développement : Alexandra Zaïnal
Sur une idée originale de : Baudouin d'Aumeries
Assistance à la programmation : Marc-Olivier Méhu
Soutien technique & logistique : Manuel Goepfert

Contact : metmap@orbifly.com




SOURCES & CREDITS :

   NOAA